sensor_id;sensor_type;location;lat;lon;timestamp;P1;durP1;ratioP1;P2;durP2;ratioP2
12088;SDS011;6107;49.078;8.578;2024-02-28T00:00:24;34.05;;;16.30;;
12088;SDS011;6107;49.078;8.578;2024-02-28T00:02:50;32.80;;;16.75;;
12088;SDS011;6107;49.078;8.578;2024-02-28T00:05:16;36.42;;;18.30;;
12088;SDS011;6107;49.078;8.578;2024-02-28T00:07:42;34.15;;;16.98;;
12088;SDS011;6107;49.078;8.578;2024-02-28T00:10:07;33.78;;;16.83;;
12088;SDS011;6107;49.078;8.578;2024-02-28T00:12:33;33.65;;;16.60;;
12088;SDS011;6107;49.078;8.578;2024-02-28T00:14:59;34.20;;;16.33;;
12088;SDS011;6107;49.078;8.578;2024-02-28T00:17:25;33.03;;;16.00;;
12088;SDS011;6107;49.078;8.578;2024-02-28T00:19:50;38.45;;;17.35;;
12088;SDS011;6107;49.078;8.578;2024-02-28T00:22:16;36.90;;;17.13;;
12088;SDS011;6107;49.078;8.578;2024-02-28T00:24:42;39.17;;;17.17;;
12088;SDS011;6107;49.078;8.578;2024-02-28T00:27:07;36.05;;;16.50;;
12088;SDS011;6107;49.078;8.578;2024-02-28T00:29:33;37.00;;;16.65;;
12088;SDS011;6107;49.078;8.578;2024-02-28T00:31:58;36.72;;;18.08;;
12088;SDS011;6107;49.078;8.578;2024-02-28T00:34:24;33.22;;;16.48;;
12088;SDS011;6107;49.078;8.578;2024-02-28T00:36:50;37.65;;;18.30;;
12088;SDS011;6107;49.078;8.578;2024-02-28T00:39:16;33.47;;;16.42;;
12088;SDS011;6107;49.078;8.578;2024-02-28T00:41:42;44.70;;;19.23;;
12088;SDS011;6107;49.078;8.578;2024-02-28T00:44:07;42.05;;;16.77;;
12088;SDS011;6107;49.078;8.578;2024-02-28T00:46:34;36.22;;;18.13;;
12088;SDS011;6107;49.078;8.578;2024-02-28T00:48:59;40.55;;;18.33;;
12088;SDS011;6107;49.078;8.578;2024-02-28T00:51:25;34.95;;;17.63;;
12088;SDS011;6107;49.078;8.578;2024-02-28T00:53:50;37.35;;;17.05;;
12088;SDS011;6107;49.078;8.578;2024-02-28T00:56:16;35.35;;;17.75;;
12088;SDS011;6107;49.078;8.578;2024-02-28T00:58:43;39.42;;;17.25;;
12088;SDS011;6107;49.078;8.578;2024-02-28T01:01:09;37.78;;;17.27;;
12088;SDS011;6107;49.078;8.578;2024-02-28T01:03:35;40.53;;;18.55;;
12088;SDS011;6107;49.078;8.578;2024-02-28T01:06:00;33.60;;;15.85;;
12088;SDS011;6107;49.078;8.578;2024-02-28T01:08:28;41.60;;;18.10;;
12088;SDS011;6107;49.078;8.578;2024-02-28T01:10:53;40.15;;;17.38;;
12088;SDS011;6107;49.078;8.578;2024-02-28T01:13:19;38.35;;;17.30;;
12088;SDS011;6107;49.078;8.578;2024-02-28T01:15:45;37.08;;;17.65;;
12088;SDS011;6107;49.078;8.578;2024-02-28T01:18:10;35.53;;;15.18;;
12088;SDS011;6107;49.078;8.578;2024-02-28T01:20:36;37.35;;;17.00;;
12088;SDS011;6107;49.078;8.578;2024-02-28T01:23:01;34.80;;;16.42;;
12088;SDS011;6107;49.078;8.578;2024-02-28T01:25:27;40.55;;;16.63;;
12088;SDS011;6107;49.078;8.578;2024-02-28T01:27:53;31.02;;;15.90;;
12088;SDS011;6107;49.078;8.578;2024-02-28T01:30:20;40.20;;;17.45;;
12088;SDS011;6107;49.078;8.578;2024-02-28T01:32:46;36.28;;;17.33;;
12088;SDS011;6107;49.078;8.578;2024-02-28T01:35:13;44.40;;;18.40;;
12088;SDS011;6107;49.078;8.578;2024-02-28T01:37:38;37.65;;;17.67;;
12088;SDS011;6107;49.078;8.578;2024-02-28T01:40:04;44.17;;;18.02;;
12088;SDS011;6107;49.078;8.578;2024-02-28T01:42:30;36.72;;;16.85;;
12088;SDS011;6107;49.078;8.578;2024-02-28T01:44:56;38.95;;;17.45;;
12088;SDS011;6107;49.078;8.578;2024-02-28T01:47:21;33.45;;;16.33;;
12088;SDS011;6107;49.078;8.578;2024-02-28T01:49:47;38.22;;;18.27;;
12088;SDS011;6107;49.078;8.578;2024-02-28T01:52:15;37.83;;;17.58;;
12088;SDS011;6107;49.078;8.578;2024-02-28T01:54:42;37.75;;;17.02;;
12088;SDS011;6107;49.078;8.578;2024-02-28T01:57:08;37.35;;;17.00;;
12088;SDS011;6107;49.078;8.578;2024-02-28T01:59:34;39.63;;;16.70;;
12088;SDS011;6107;49.078;8.578;2024-02-28T02:02:00;44.58;;;17.98;;
12088;SDS011;6107;49.078;8.578;2024-02-28T02:04:25;32.35;;;16.70;;
12088;SDS011;6107;49.078;8.578;2024-02-28T02:06:51;43.60;;;18.92;;
12088;SDS011;6107;49.078;8.578;2024-02-28T02:09:19;42.60;;;18.67;;
12088;SDS011;6107;49.078;8.578;2024-02-28T02:11:45;39.70;;;17.80;;
12088;SDS011;6107;49.078;8.578;2024-02-28T02:14:10;37.95;;;17.15;;
12088;SDS011;6107;49.078;8.578;2024-02-28T02:16:36;36.03;;;17.88;;
12088;SDS011;6107;49.078;8.578;2024-02-28T02:19:02;38.55;;;17.50;;
12088;SDS011;6107;49.078;8.578;2024-02-28T02:21:34;36.00;;;17.63;;
12088;SDS011;6107;49.078;8.578;2024-02-28T02:24:06;45.65;;;18.17;;
12088;SDS011;6107;49.078;8.578;2024-02-28T02:26:31;46.63;;;18.35;;
12088;SDS011;6107;49.078;8.578;2024-02-28T02:28:57;42.63;;;19.98;;
12088;SDS011;6107;49.078;8.578;2024-02-28T02:31:22;43.45;;;19.10;;
12088;SDS011;6107;49.078;8.578;2024-02-28T02:33:48;42.10;;;18.58;;
12088;SDS011;6107;49.078;8.578;2024-02-28T02:36:14;47.53;;;18.02;;
12088;SDS011;6107;49.078;8.578;2024-02-28T02:38:39;42.10;;;18.50;;
12088;SDS011;6107;49.078;8.578;2024-02-28T02:41:06;44.13;;;19.67;;
12088;SDS011;6107;49.078;8.578;2024-02-28T02:43:31;43.83;;;18.73;;
12088;SDS011;6107;49.078;8.578;2024-02-28T02:45:57;43.40;;;18.95;;
12088;SDS011;6107;49.078;8.578;2024-02-28T02:48:22;42.63;;;17.40;;
12088;SDS011;6107;49.078;8.578;2024-02-28T02:50:48;43.00;;;19.27;;
12088;SDS011;6107;49.078;8.578;2024-02-28T02:53:14;40.85;;;18.83;;
12088;SDS011;6107;49.078;8.578;2024-02-28T02:55:39;43.65;;;19.20;;
12088;SDS011;6107;49.078;8.578;2024-02-28T02:58:05;38.40;;;18.02;;
12088;SDS011;6107;49.078;8.578;2024-02-28T03:00:30;43.33;;;19.45;;
12088;SDS011;6107;49.078;8.578;2024-02-28T03:02:56;38.13;;;17.60;;
12088;SDS011;6107;49.078;8.578;2024-02-28T03:05:22;46.25;;;19.20;;
12088;SDS011;6107;49.078;8.578;2024-02-28T03:07:47;49.35;;;20.13;;
12088;SDS011;6107;49.078;8.578;2024-02-28T03:10:13;51.30;;;19.50;;
12088;SDS011;6107;49.078;8.578;2024-02-28T03:12:38;43.63;;;19.20;;
12088;SDS011;6107;49.078;8.578;2024-02-28T03:15:04;43.35;;;19.27;;
12088;SDS011;6107;49.078;8.578;2024-02-28T03:17:30;41.30;;;19.02;;
12088;SDS011;6107;49.078;8.578;2024-02-28T03:19:56;42.72;;;19.20;;
12088;SDS011;6107;49.078;8.578;2024-02-28T03:22:21;49.03;;;20.98;;
12088;SDS011;6107;49.078;8.578;2024-02-28T03:24:47;46.75;;;19.83;;
12088;SDS011;6107;49.078;8.578;2024-02-28T03:27:13;40.83;;;18.70;;
12088;SDS011;6107;49.078;8.578;2024-02-28T03:29:39;45.92;;;20.15;;
12088;SDS011;6107;49.078;8.578;2024-02-28T03:32:05;49.70;;;20.77;;
12088;SDS011;6107;49.078;8.578;2024-02-28T03:34:31;48.45;;;21.98;;
12088;SDS011;6107;49.078;8.578;2024-02-28T03:36:56;45.75;;;20.25;;
12088;SDS011;6107;49.078;8.578;2024-02-28T03:39:22;47.17;;;20.50;;
12088;SDS011;6107;49.078;8.578;2024-02-28T03:41:48;48.80;;;22.48;;
12088;SDS011;6107;49.078;8.578;2024-02-28T03:44:13;51.63;;;22.92;;
12088;SDS011;6107;49.078;8.578;2024-02-28T03:46:39;46.70;;;20.45;;
12088;SDS011;6107;49.078;8.578;2024-02-28T03:49:05;44.90;;;21.35;;
12088;SDS011;6107;49.078;8.578;2024-02-28T03:51:30;46.17;;;20.77;;
12088;SDS011;6107;49.078;8.578;2024-02-28T03:53:56;54.45;;;23.55;;
12088;SDS011;6107;49.078;8.578;2024-02-28T03:56:22;43.85;;;20.13;;
12088;SDS011;6107;49.078;8.578;2024-02-28T03:58:52;46.10;;;21.77;;
12088;SDS011;6107;49.078;8.578;2024-02-28T04:01:18;47.40;;;21.92;;
12088;SDS011;6107;49.078;8.578;2024-02-28T04:03:45;48.65;;;21.17;;
12088;SDS011;6107;49.078;8.578;2024-02-28T04:06:11;46.22;;;20.23;;
12088;SDS011;6107;49.078;8.578;2024-02-28T04:08:36;45.75;;;20.85;;
12088;SDS011;6107;49.078;8.578;2024-02-28T04:11:02;48.30;;;21.25;;
12088;SDS011;6107;49.078;8.578;2024-02-28T04:13:28;47.05;;;22.17;;
12088;SDS011;6107;49.078;8.578;2024-02-28T04:15:54;51.33;;;20.98;;
12088;SDS011;6107;49.078;8.578;2024-02-28T04:18:23;40.15;;;19.40;;
12088;SDS011;6107;49.078;8.578;2024-02-28T04:20:49;52.67;;;22.77;;
12088;SDS011;6107;49.078;8.578;2024-02-28T04:23:14;42.97;;;19.88;;
12088;SDS011;6107;49.078;8.578;2024-02-28T04:25:41;48.92;;;21.25;;
12088;SDS011;6107;49.078;8.578;2024-02-28T04:28:07;54.90;;;20.85;;
12088;SDS011;6107;49.078;8.578;2024-02-28T04:30:33;44.00;;;20.83;;
12088;SDS011;6107;49.078;8.578;2024-02-28T04:32:59;44.78;;;20.73;;
12088;SDS011;6107;49.078;8.578;2024-02-28T04:35:25;50.35;;;21.67;;
12088;SDS011;6107;49.078;8.578;2024-02-28T04:37:51;41.15;;;19.90;;
12088;SDS011;6107;49.078;8.578;2024-02-28T04:40:16;45.88;;;20.92;;
12088;SDS011;6107;49.078;8.578;2024-02-28T04:42:42;48.45;;;20.85;;
12088;SDS011;6107;49.078;8.578;2024-02-28T04:45:10;43.80;;;20.35;;
12088;SDS011;6107;49.078;8.578;2024-02-28T04:47:36;49.20;;;21.38;;
12088;SDS011;6107;49.078;8.578;2024-02-28T04:50:03;43.28;;;19.98;;
12088;SDS011;6107;49.078;8.578;2024-02-28T04:52:30;49.25;;;22.27;;
12088;SDS011;6107;49.078;8.578;2024-02-28T04:54:56;43.55;;;19.77;;
12088;SDS011;6107;49.078;8.578;2024-02-28T04:57:22;45.35;;;20.85;;
12088;SDS011;6107;49.078;8.578;2024-02-28T04:59:47;46.38;;;21.92;;
12088;SDS011;6107;49.078;8.578;2024-02-28T05:02:13;50.92;;;21.70;;
12088;SDS011;6107;49.078;8.578;2024-02-28T05:04:39;46.47;;;20.45;;
12088;SDS011;6107;49.078;8.578;2024-02-28T05:07:04;43.95;;;21.30;;
12088;SDS011;6107;49.078;8.578;2024-02-28T05:09:32;51.83;;;21.98;;
12088;SDS011;6107;49.078;8.578;2024-02-28T05:11:58;49.88;;;21.80;;
12088;SDS011;6107;49.078;8.578;2024-02-28T05:14:24;42.90;;;20.95;;
12088;SDS011;6107;49.078;8.578;2024-02-28T05:16:49;42.25;;;20.33;;
12088;SDS011;6107;49.078;8.578;2024-02-28T05:19:15;44.78;;;20.70;;
12088;SDS011;6107;49.078;8.578;2024-02-28T05:21:44;46.90;;;21.55;;
12088;SDS011;6107;49.078;8.578;2024-02-28T05:24:10;45.70;;;20.83;;
12088;SDS011;6107;49.078;8.578;2024-02-28T05:26:36;44.33;;;21.00;;
12088;SDS011;6107;49.078;8.578;2024-02-28T05:29:02;48.10;;;20.95;;
12088;SDS011;6107;49.078;8.578;2024-02-28T05:31:29;45.88;;;19.92;;
12088;SDS011;6107;49.078;8.578;2024-02-28T05:33:56;50.72;;;21.95;;
12088;SDS011;6107;49.078;8.578;2024-02-28T05:36:23;51.35;;;20.45;;
12088;SDS011;6107;49.078;8.578;2024-02-28T05:38:50;41.42;;;18.05;;
12088;SDS011;6107;49.078;8.578;2024-02-28T05:41:17;45.70;;;20.27;;
12088;SDS011;6107;49.078;8.578;2024-02-28T05:43:43;43.22;;;19.10;;
12088;SDS011;6107;49.078;8.578;2024-02-28T05:46:09;48.15;;;19.08;;
12088;SDS011;6107;49.078;8.578;2024-02-28T05:48:35;42.97;;;19.13;;
12088;SDS011;6107;49.078;8.578;2024-02-28T05:51:01;40.72;;;18.27;;
12088;SDS011;6107;49.078;8.578;2024-02-28T05:53:27;45.72;;;19.05;;
12088;SDS011;6107;49.078;8.578;2024-02-28T05:55:53;51.20;;;19.55;;
12088;SDS011;6107;49.078;8.578;2024-02-28T05:58:22;47.53;;;20.02;;
12088;SDS011;6107;49.078;8.578;2024-02-28T06:00:48;46.25;;;19.45;;
12088;SDS011;6107;49.078;8.578;2024-02-28T06:03:14;51.15;;;19.05;;
12088;SDS011;6107;49.078;8.578;2024-02-28T06:05:39;46.95;;;17.17;;
12088;SDS011;6107;49.078;8.578;2024-02-28T06:08:05;40.00;;;17.52;;
12088;SDS011;6107;49.078;8.578;2024-02-28T06:10:31;41.47;;;18.10;;
12088;SDS011;6107;49.078;8.578;2024-02-28T06:12:57;38.05;;;17.75;;
12088;SDS011;6107;49.078;8.578;2024-02-28T06:15:22;41.72;;;19.05;;
12088;SDS011;6107;49.078;8.578;2024-02-28T06:17:48;37.65;;;17.13;;
12088;SDS011;6107;49.078;8.578;2024-02-28T06:20:13;47.45;;;18.42;;
12088;SDS011;6107;49.078;8.578;2024-02-28T06:22:39;47.70;;;17.80;;
12088;SDS011;6107;49.078;8.578;2024-02-28T06:25:05;45.22;;;19.63;;
12088;SDS011;6107;49.078;8.578;2024-02-28T06:27:38;44.28;;;19.25;;
12088;SDS011;6107;49.078;8.578;2024-02-28T06:30:04;44.40;;;18.88;;
12088;SDS011;6107;49.078;8.578;2024-02-28T06:32:31;41.33;;;17.90;;
12088;SDS011;6107;49.078;8.578;2024-02-28T06:34:56;39.60;;;17.23;;
12088;SDS011;6107;49.078;8.578;2024-02-28T06:37:22;39.08;;;17.15;;
12088;SDS011;6107;49.078;8.578;2024-02-28T06:39:47;49.58;;;18.40;;
12088;SDS011;6107;49.078;8.578;2024-02-28T06:42:13;47.60;;;18.90;;
12088;SDS011;6107;49.078;8.578;2024-02-28T06:44:39;49.60;;;18.77;;
12088;SDS011;6107;49.078;8.578;2024-02-28T06:47:04;47.92;;;18.92;;
12088;SDS011;6107;49.078;8.578;2024-02-28T06:49:30;49.45;;;20.88;;
12088;SDS011;6107;49.078;8.578;2024-02-28T06:51:55;56.90;;;22.30;;
12088;SDS011;6107;49.078;8.578;2024-02-28T06:54:24;56.35;;;21.73;;
12088;SDS011;6107;49.078;8.578;2024-02-28T06:56:50;56.03;;;21.00;;
12088;SDS011;6107;49.078;8.578;2024-02-28T06:59:15;53.47;;;22.25;;
12088;SDS011;6107;49.078;8.578;2024-02-28T07:01:41;60.88;;;24.42;;
12088;SDS011;6107;49.078;8.578;2024-02-28T07:04:06;60.33;;;25.63;;
12088;SDS011;6107;49.078;8.578;2024-02-28T07:06:32;63.47;;;25.92;;
12088;SDS011;6107;49.078;8.578;2024-02-28T07:08:58;58.50;;;25.10;;
12088;SDS011;6107;49.078;8.578;2024-02-28T07:11:23;67.55;;;26.67;;
12088;SDS011;6107;49.078;8.578;2024-02-28T07:13:49;64.43;;;26.88;;
12088;SDS011;6107;49.078;8.578;2024-02-28T07:16:14;61.90;;;25.58;;
12088;SDS011;6107;49.078;8.578;2024-02-28T07:18:40;59.08;;;24.38;;
12088;SDS011;6107;49.078;8.578;2024-02-28T07:21:06;61.40;;;25.52;;
12088;SDS011;6107;49.078;8.578;2024-02-28T07:23:32;57.30;;;23.88;;
12088;SDS011;6107;49.078;8.578;2024-02-28T07:25:57;57.00;;;25.63;;
12088;SDS011;6107;49.078;8.578;2024-02-28T07:28:23;55.90;;;25.02;;
12088;SDS011;6107;49.078;8.578;2024-02-28T07:30:48;53.92;;;23.85;;
12088;SDS011;6107;49.078;8.578;2024-02-28T07:33:14;63.92;;;27.05;;
12088;SDS011;6107;49.078;8.578;2024-02-28T07:35:51;54.30;;;24.60;;
12088;SDS011;6107;49.078;8.578;2024-02-28T07:38:17;65.70;;;25.50;;
12088;SDS011;6107;49.078;8.578;2024-02-28T07:40:45;59.45;;;24.65;;
12088;SDS011;6107;49.078;8.578;2024-02-28T07:43:12;56.50;;;25.23;;
12088;SDS011;6107;49.078;8.578;2024-02-28T07:45:38;57.47;;;25.88;;
12088;SDS011;6107;49.078;8.578;2024-02-28T07:48:04;61.35;;;25.58;;
12088;SDS011;6107;49.078;8.578;2024-02-28T07:50:30;60.75;;;23.17;;
12088;SDS011;6107;49.078;8.578;2024-02-28T07:52:56;65.88;;;28.10;;
12088;SDS011;6107;49.078;8.578;2024-02-28T07:55:22;55.80;;;24.25;;
12088;SDS011;6107;49.078;8.578;2024-02-28T07:57:50;67.85;;;30.05;;
12088;SDS011;6107;49.078;8.578;2024-02-28T08:00:17;56.88;;;24.55;;
12088;SDS011;6107;49.078;8.578;2024-02-28T08:02:44;51.67;;;23.58;;
12088;SDS011;6107;49.078;8.578;2024-02-28T08:05:10;51.80;;;23.92;;
12088;SDS011;6107;49.078;8.578;2024-02-28T08:07:36;50.38;;;22.38;;
12088;SDS011;6107;49.078;8.578;2024-02-28T08:10:02;50.67;;;22.73;;
12088;SDS011;6107;49.078;8.578;2024-02-28T08:12:30;52.25;;;24.83;;
12088;SDS011;6107;49.078;8.578;2024-02-28T08:14:57;56.22;;;25.83;;
12088;SDS011;6107;49.078;8.578;2024-02-28T08:17:22;73.00;;;32.38;;
12088;SDS011;6107;49.078;8.578;2024-02-28T08:19:48;58.42;;;26.35;;
12088;SDS011;6107;49.078;8.578;2024-02-28T08:22:14;100.28;;;43.08;;
12088;SDS011;6107;49.078;8.578;2024-02-28T08:24:39;197.90;;;82.30;;
12088;SDS011;6107;49.078;8.578;2024-02-28T08:27:05;83.95;;;39.95;;
12088;SDS011;6107;49.078;8.578;2024-02-28T08:29:31;57.05;;;25.85;;
12088;SDS011;6107;49.078;8.578;2024-02-28T08:31:57;57.05;;;24.20;;
12088;SDS011;6107;49.078;8.578;2024-02-28T08:34:23;51.80;;;24.00;;
12088;SDS011;6107;49.078;8.578;2024-02-28T08:36:49;55.90;;;24.45;;
12088;SDS011;6107;49.078;8.578;2024-02-28T08:39:15;57.40;;;24.48;;
12088;SDS011;6107;49.078;8.578;2024-02-28T08:41:41;58.38;;;25.90;;
12088;SDS011;6107;49.078;8.578;2024-02-28T08:44:06;63.47;;;24.33;;
12088;SDS011;6107;49.078;8.578;2024-02-28T08:46:32;55.50;;;24.63;;
12088;SDS011;6107;49.078;8.578;2024-02-28T08:48:57;51.70;;;24.33;;
12088;SDS011;6107;49.078;8.578;2024-02-28T08:51:23;56.20;;;24.70;;
12088;SDS011;6107;49.078;8.578;2024-02-28T08:53:49;52.10;;;23.50;;
12088;SDS011;6107;49.078;8.578;2024-02-28T08:56:17;47.45;;;22.63;;
12088;SDS011;6107;49.078;8.578;2024-02-28T08:58:42;50.78;;;22.13;;
12088;SDS011;6107;49.078;8.578;2024-02-28T09:01:12;50.50;;;24.17;;
12088;SDS011;6107;49.078;8.578;2024-02-28T09:03:41;49.60;;;22.58;;
12088;SDS011;6107;49.078;8.578;2024-02-28T09:06:07;46.78;;;20.77;;
12088;SDS011;6107;49.078;8.578;2024-02-28T09:08:33;47.83;;;23.05;;
12088;SDS011;6107;49.078;8.578;2024-02-28T09:10:58;44.83;;;21.63;;
12088;SDS011;6107;49.078;8.578;2024-02-28T09:13:26;51.65;;;23.13;;
12088;SDS011;6107;49.078;8.578;2024-02-28T09:15:57;50.03;;;23.90;;
12088;SDS011;6107;49.078;8.578;2024-02-28T09:18:23;47.10;;;21.48;;
12088;SDS011;6107;49.078;8.578;2024-02-28T09:20:49;40.33;;;19.50;;
12088;SDS011;6107;49.078;8.578;2024-02-28T09:23:14;39.08;;;19.67;;
12088;SDS011;6107;49.078;8.578;2024-02-28T09:25:40;37.10;;;18.88;;
12088;SDS011;6107;49.078;8.578;2024-02-28T09:28:06;42.97;;;19.70;;
12088;SDS011;6107;49.078;8.578;2024-02-28T09:30:31;38.45;;;19.38;;
12088;SDS011;6107;49.078;8.578;2024-02-28T09:32:57;37.20;;;18.10;;
12088;SDS011;6107;49.078;8.578;2024-02-28T09:35:23;34.00;;;17.00;;
12088;SDS011;6107;49.078;8.578;2024-02-28T09:37:49;34.20;;;16.55;;
12088;SDS011;6107;49.078;8.578;2024-02-28T09:40:14;37.58;;;17.30;;
12088;SDS011;6107;49.078;8.578;2024-02-28T09:42:41;31.70;;;16.08;;
12088;SDS011;6107;49.078;8.578;2024-02-28T09:45:10;39.38;;;19.08;;
12088;SDS011;6107;49.078;8.578;2024-02-28T09:47:38;33.53;;;17.00;;
12088;SDS011;6107;49.078;8.578;2024-02-28T09:50:04;35.03;;;18.05;;
12088;SDS011;6107;49.078;8.578;2024-02-28T09:52:31;34.85;;;16.83;;
12088;SDS011;6107;49.078;8.578;2024-02-28T09:54:56;36.20;;;17.65;;
12088;SDS011;6107;49.078;8.578;2024-02-28T09:57:23;36.83;;;17.33;;
12088;SDS011;6107;49.078;8.578;2024-02-28T09:59:53;33.28;;;17.30;;
12088;SDS011;6107;49.078;8.578;2024-02-28T10:02:23;42.05;;;18.50;;
12088;SDS011;6107;49.078;8.578;2024-02-28T10:04:49;34.88;;;17.25;;
12088;SDS011;6107;49.078;8.578;2024-02-28T10:07:15;40.28;;;20.38;;
12088;SDS011;6107;49.078;8.578;2024-02-28T10:09:41;42.72;;;20.20;;
12088;SDS011;6107;49.078;8.578;2024-02-28T10:12:07;37.47;;;19.33;;
12088;SDS011;6107;49.078;8.578;2024-02-28T10:14:33;39.15;;;19.55;;
12088;SDS011;6107;49.078;8.578;2024-02-28T10:16:59;43.92;;;21.02;;
12088;SDS011;6107;49.078;8.578;2024-02-28T10:19:24;42.50;;;20.33;;
12088;SDS011;6107;49.078;8.578;2024-02-28T10:21:50;36.83;;;18.48;;
12088;SDS011;6107;49.078;8.578;2024-02-28T10:24:16;41.88;;;19.42;;
12088;SDS011;6107;49.078;8.578;2024-02-28T10:26:45;40.75;;;19.63;;
12088;SDS011;6107;49.078;8.578;2024-02-28T10:29:20;40.65;;;19.70;;
12088;SDS011;6107;49.078;8.578;2024-02-28T10:31:47;43.33;;;20.00;;
12088;SDS011;6107;49.078;8.578;2024-02-28T10:34:13;41.03;;;19.50;;
12088;SDS011;6107;49.078;8.578;2024-02-28T10:36:46;45.47;;;19.20;;
12088;SDS011;6107;49.078;8.578;2024-02-28T10:39:12;37.45;;;18.48;;
12088;SDS011;6107;49.078;8.578;2024-02-28T10:41:39;34.65;;;16.23;;
12088;SDS011;6107;49.078;8.578;2024-02-28T10:44:05;35.45;;;17.13;;
12088;SDS011;6107;49.078;8.578;2024-02-28T10:46:30;37.70;;;17.85;;
12088;SDS011;6107;49.078;8.578;2024-02-28T10:48:56;32.22;;;15.63;;
12088;SDS011;6107;49.078;8.578;2024-02-28T10:51:23;31.17;;;15.23;;
12088;SDS011;6107;49.078;8.578;2024-02-28T10:53:51;29.58;;;15.43;;
12088;SDS011;6107;49.078;8.578;2024-02-28T10:56:37;35.60;;;16.70;;
12088;SDS011;6107;49.078;8.578;2024-02-28T10:59:03;37.30;;;17.00;;
12088;SDS011;6107;49.078;8.578;2024-02-28T11:01:35;35.63;;;16.23;;
12088;SDS011;6107;49.078;8.578;2024-02-28T11:04:02;32.55;;;15.77;;
12088;SDS011;6107;49.078;8.578;2024-02-28T11:06:29;27.48;;;13.93;;
12088;SDS011;6107;49.078;8.578;2024-02-28T11:08:54;26.58;;;13.70;;
12088;SDS011;6107;49.078;8.578;2024-02-28T11:11:21;29.30;;;14.57;;
12088;SDS011;6107;49.078;8.578;2024-02-28T11:13:54;28.63;;;14.32;;
12088;SDS011;6107;49.078;8.578;2024-02-28T11:16:28;30.20;;;14.98;;
12088;SDS011;6107;49.078;8.578;2024-02-28T11:18:55;25.80;;;14.63;;
12088;SDS011;6107;49.078;8.578;2024-02-28T11:21:27;30.27;;;13.85;;
12088;SDS011;6107;49.078;8.578;2024-02-28T11:23:57;27.50;;;14.50;;
12088;SDS011;6107;49.078;8.578;2024-02-28T11:26:23;29.30;;;13.80;;
12088;SDS011;6107;49.078;8.578;2024-02-28T11:28:50;27.08;;;14.10;;
12088;SDS011;6107;49.078;8.578;2024-02-28T11:31:16;30.02;;;13.07;;
12088;SDS011;6107;49.078;8.578;2024-02-28T11:33:43;30.00;;;13.32;;
12088;SDS011;6107;49.078;8.578;2024-02-28T11:36:11;23.67;;;12.05;;
12088;SDS011;6107;49.078;8.578;2024-02-28T11:38:38;22.45;;;12.82;;
12088;SDS011;6107;49.078;8.578;2024-02-28T11:41:04;22.45;;;12.00;;
12088;SDS011;6107;49.078;8.578;2024-02-28T11:43:30;19.70;;;11.10;;
12088;SDS011;6107;49.078;8.578;2024-02-28T11:46:07;21.73;;;10.27;;
12088;SDS011;6107;49.078;8.578;2024-02-28T11:48:35;18.45;;;10.25;;
12088;SDS011;6107;49.078;8.578;2024-02-28T11:51:00;22.25;;;11.25;;
12088;SDS011;6107;49.078;8.578;2024-02-28T11:53:26;20.85;;;10.88;;
12088;SDS011;6107;49.078;8.578;2024-02-28T11:55:52;18.20;;;10.55;;
12088;SDS011;6107;49.078;8.578;2024-02-28T11:58:18;21.95;;;10.90;;
12088;SDS011;6107;49.078;8.578;2024-02-28T12:00:49;25.75;;;11.50;;
12088;SDS011;6107;49.078;8.578;2024-02-28T12:03:22;20.10;;;11.20;;
12088;SDS011;6107;49.078;8.578;2024-02-28T12:05:48;17.50;;;10.70;;
12088;SDS011;6107;49.078;8.578;2024-02-28T12:08:15;21.95;;;11.82;;
12088;SDS011;6107;49.078;8.578;2024-02-28T12:10:44;22.27;;;12.60;;
12088;SDS011;6107;49.078;8.578;2024-02-28T12:13:19;21.60;;;10.77;;
12088;SDS011;6107;49.078;8.578;2024-02-28T12:15:47;20.63;;;11.07;;
12088;SDS011;6107;49.078;8.578;2024-02-28T12:18:14;24.98;;;13.40;;
12088;SDS011;6107;49.078;8.578;2024-02-28T12:20:40;25.17;;;13.75;;
12088;SDS011;6107;49.078;8.578;2024-02-28T12:23:06;22.85;;;11.18;;
12088;SDS011;6107;49.078;8.578;2024-02-28T12:25:33;18.83;;;10.77;;
12088;SDS011;6107;49.078;8.578;2024-02-28T12:27:59;17.52;;;10.38;;
12088;SDS011;6107;49.078;8.578;2024-02-28T12:30:26;22.65;;;12.52;;
12088;SDS011;6107;49.078;8.578;2024-02-28T12:32:51;20.05;;;11.43;;
12088;SDS011;6107;49.078;8.578;2024-02-28T12:35:17;20.85;;;10.80;;
12088;SDS011;6107;49.078;8.578;2024-02-28T12:37:42;20.60;;;11.48;;
12088;SDS011;6107;49.078;8.578;2024-02-28T12:40:08;23.80;;;11.60;;
12088;SDS011;6107;49.078;8.578;2024-02-28T12:42:34;21.73;;;10.18;;
12088;SDS011;6107;49.078;8.578;2024-02-28T12:45:01;19.70;;;10.77;;
12088;SDS011;6107;49.078;8.578;2024-02-28T12:47:27;18.98;;;10.35;;
12088;SDS011;6107;49.078;8.578;2024-02-28T12:49:55;22.85;;;10.98;;
12088;SDS011;6107;49.078;8.578;2024-02-28T12:52:21;17.20;;;10.27;;
12088;SDS011;6107;49.078;8.578;2024-02-28T12:54:46;20.25;;;10.18;;
12088;SDS011;6107;49.078;8.578;2024-02-28T12:57:12;19.73;;;10.23;;
12088;SDS011;6107;49.078;8.578;2024-02-28T12:59:41;19.25;;;10.90;;
12088;SDS011;6107;49.078;8.578;2024-02-28T13:02:08;21.05;;;12.88;;
12088;SDS011;6107;49.078;8.578;2024-02-28T13:04:34;22.92;;;13.55;;
12088;SDS011;6107;49.078;8.578;2024-02-28T13:07:00;21.08;;;11.60;;
12088;SDS011;6107;49.078;8.578;2024-02-28T13:09:26;20.52;;;11.02;;
12088;SDS011;6107;49.078;8.578;2024-02-28T13:11:52;18.77;;;10.55;;
12088;SDS011;6107;49.078;8.578;2024-02-28T13:14:18;21.30;;;12.13;;
12088;SDS011;6107;49.078;8.578;2024-02-28T13:16:44;19.48;;;11.43;;
12088;SDS011;6107;49.078;8.578;2024-02-28T13:19:09;19.42;;;10.55;;
12088;SDS011;6107;49.078;8.578;2024-02-28T13:21:35;18.35;;;10.57;;
12088;SDS011;6107;49.078;8.578;2024-02-28T13:24:02;18.23;;;10.77;;
12088;SDS011;6107;49.078;8.578;2024-02-28T13:26:29;19.02;;;9.85;;
12088;SDS011;6107;49.078;8.578;2024-02-28T13:28:55;18.73;;;10.00;;
12088;SDS011;6107;49.078;8.578;2024-02-28T13:31:21;18.15;;;10.10;;
12088;SDS011;6107;49.078;8.578;2024-02-28T13:33:48;19.00;;;9.32;;
12088;SDS011;6107;49.078;8.578;2024-02-28T13:36:14;18.08;;;9.57;;
12088;SDS011;6107;49.078;8.578;2024-02-28T13:38:40;18.30;;;9.70;;
12088;SDS011;6107;49.078;8.578;2024-02-28T13:41:06;18.75;;;10.75;;
12088;SDS011;6107;49.078;8.578;2024-02-28T13:43:32;19.48;;;10.10;;
12088;SDS011;6107;49.078;8.578;2024-02-28T13:45:58;16.90;;;10.10;;
12088;SDS011;6107;49.078;8.578;2024-02-28T13:48:27;18.15;;;10.27;;
12088;SDS011;6107;49.078;8.578;2024-02-28T13:50:54;17.95;;;10.10;;
12088;SDS011;6107;49.078;8.578;2024-02-28T13:53:20;21.70;;;11.23;;
12088;SDS011;6107;49.078;8.578;2024-02-28T13:55:46;17.17;;;9.45;;
12088;SDS011;6107;49.078;8.578;2024-02-28T13:58:12;16.17;;;9.90;;
12088;SDS011;6107;49.078;8.578;2024-02-28T14:00:39;16.92;;;9.35;;
12088;SDS011;6107;49.078;8.578;2024-02-28T14:03:05;18.48;;;9.95;;
12088;SDS011;6107;49.078;8.578;2024-02-28T14:05:31;15.52;;;9.13;;
12088;SDS011;6107;49.078;8.578;2024-02-28T14:07:57;17.42;;;9.63;;
12088;SDS011;6107;49.078;8.578;2024-02-28T14:10:24;18.38;;;9.63;;
12088;SDS011;6107;49.078;8.578;2024-02-28T14:12:50;17.08;;;9.75;;
12088;SDS011;6107;49.078;8.578;2024-02-28T14:15:22;17.13;;;9.05;;
12088;SDS011;6107;49.078;8.578;2024-02-28T14:17:48;17.55;;;9.15;;
12088;SDS011;6107;49.078;8.578;2024-02-28T14:20:13;19.63;;;9.70;;
12088;SDS011;6107;49.078;8.578;2024-02-28T14:22:39;18.23;;;10.10;;
12088;SDS011;6107;49.078;8.578;2024-02-28T14:25:25;13.80;;;8.48;;
12088;SDS011;6107;49.078;8.578;2024-02-28T14:27:51;13.30;;;8.70;;
12088;SDS011;6107;49.078;8.578;2024-02-28T14:30:17;16.98;;;9.32;;